Time;durP1;ratioP1;P1;durP2;ratioP2;P2;SDS_P1;SDS_P2;PMS_P1;PMS_P2;Temp;Humidity;BMP_temperature;BMP_pressure;BME280_temperature;BME280_humidity;BME280_pressure;Samples;Min_cycle;Max_cycle;Signal;HPM_P1;HPM_P2
2022/01/17 00:01:16;;;;;;;3.27;2.27;;;19.60;47.30;;;;;;5054952;27;88459;-67
2022/01/17 00:03:44;;;;;;;3.13;2.63;;;19.60;47.30;;;;;;5062844;27;88159;-66
2022/01/17 00:06:13;;;;;;;3.87;2.23;;;19.60;47.30;;;;;;5049035;27;89678;-67
2022/01/17 00:08:43;;;;;;;5.80;2.40;;;19.60;47.30;;;;;;5060259;27;89318;-68
2022/01/17 00:11:14;;;;;;;3.80;2.27;;;19.60;47.30;;;;;;5062012;27;88924;-66
2022/01/17 00:13:42;;;;;;;3.73;2.07;;;19.60;47.30;;;;;;5061351;27;88568;-65
2022/01/17 00:16:13;;;;;;;2.90;1.93;;;19.60;47.30;;;;;;5062191;27;88453;-68
2022/01/17 00:21:41;;;;;;;4.50;2.17;;;19.50;47.10;;;;;;5024948;27;89136;-66
2022/01/17 00:24:09;;;;;;;4.27;2.33;;;19.50;47.10;;;;;;5042187;27;89202;-66
2022/01/17 00:26:37;;;;;;;3.93;2.00;;;19.50;47.10;;;;;;5043082;27;89770;-66
2022/01/17 00:29:05;;;;;;;5.03;1.93;;;19.50;47.10;;;;;;5061945;27;88831;-66
2022/01/17 00:31:33;;;;;;;3.30;1.93;;;19.50;47.10;;;;;;5062755;27;89337;-65
2022/01/17 00:34:01;;;;;;;6.00;2.20;;;19.40;47.10;;;;;;5051750;27;88281;-65
2022/01/17 00:36:29;;;;;;;4.40;1.63;;;19.40;47.10;;;;;;5061235;27;91490;-66
2022/01/17 00:38:58;;;;;;;3.57;1.80;;;19.40;47.10;;;;;;5042630;27;90024;-65
2022/01/17 00:41:27;;;;;;;3.23;1.97;;;19.40;47.10;;;;;;5040828;27;89802;-66
2022/01/17 00:43:55;;;;;;;2.73;1.50;;;19.40;47.10;;;;;;5043408;27;88361;-65
2022/01/17 00:46:23;;;;;;;2.03;1.80;;;19.40;47.00;;;;;;5054477;27;90020;-65
2022/01/17 00:48:51;;;;;;;4.73;1.60;;;19.40;47.10;;;;;;5045926;27;88693;-65
2022/01/17 00:51:19;;;;;;;4.63;1.70;;;19.40;47.10;;;;;;5057537;27;89083;-66
2022/01/17 00:53:47;;;;;;;3.03;1.70;;;19.40;47.10;;;;;;5062013;27;88609;-65
2022/01/17 00:56:16;;;;;;;3.03;2.23;;;19.30;47.00;;;;;;5061016;27;89652;-66
2022/01/17 00:58:44;;;;;;;2.83;1.63;;;19.30;46.90;;;;;;5054239;27;89914;-65
2022/01/17 01:01:12;;;;;;;2.30;1.70;;;19.30;46.90;;;;;;5044130;27;88741;-65
2022/01/17 01:03:40;;;;;;;2.47;1.27;;;19.30;47.60;;;;;;5048327;27;88483;-66
2022/01/17 01:06:08;;;;;;;2.07;1.50;;;19.30;47.00;;;;;;5054858;27;91338;-66
2022/01/17 01:08:36;;;;;;;3.37;1.73;;;19.30;46.90;;;;;;5048510;27;89031;-66
2022/01/17 01:11:04;;;;;;;3.27;1.93;;;19.30;46.90;;;;;;5059491;27;88339;-66
2022/01/17 01:13:34;;;;;;;3.93;1.53;;;19.30;46.90;;;;;;5058613;27;88443;-66
2022/01/17 01:19:07;;;;;;;3.10;2.20;;;19.30;46.90;;;;;;5054605;27;88967;-66
2022/01/17 01:21:47;;;;;;;2.90;1.20;;;19.30;46.90;;;;;;5054273;27;89239;-65
2022/01/17 01:29:55;;;;;;;1.90;1.60;;;19.20;46.90;;;;;;5032001;27;89379;-66
2022/01/17 01:32:28;;;;;;;2.20;1.67;;;19.20;46.90;;;;;;5051204;27;88789;-68
2022/01/17 01:34:59;;;;;;;3.33;1.60;;;19.20;46.90;;;;;;5055473;27;88748;-66
2022/01/17 01:37:27;;;;;;;2.03;1.47;;;19.20;46.90;;;;;;5046037;27;90598;-66
2022/01/17 01:39:55;;;;;;;2.60;1.00;;;19.10;46.80;;;;;;5040059;27;89299;-68
2022/01/17 01:42:24;;;;;;;2.67;1.37;;;19.10;46.80;;;;;;5053320;27;88479;-68
2022/01/17 01:44:53;;;;;;;3.73;1.70;;;19.10;46.80;;;;;;5049181;27;88491;-68
2022/01/17 01:47:22;;;;;;;2.73;1.50;;;19.10;46.80;;;;;;5040695;27;89712;-68
2022/01/17 01:49:51;;;;;;;1.20;0.83;;;19.10;46.80;;;;;;5040749;27;89968;-65
2022/01/17 01:52:19;;;;;;;2.33;1.37;;;19.10;46.80;;;;;;5046056;27;88906;-68
2022/01/17 01:54:48;;;;;;;2.87;1.23;;;19.10;46.80;;;;;;5046336;27;88626;-65
2022/01/17 01:57:15;;;;;;;1.63;1.40;;;19.10;46.80;;;;;;5047648;27;90317;-65
2022/01/17 01:59:43;;;;;;;2.03;1.37;;;18.80;46.50;;;;;;5059437;27;89477;-66
2022/01/17 02:02:14;;;;;;;3.33;1.73;;;19.10;46.80;;;;;;5039860;27;88958;-68
2022/01/17 02:04:43;;;;;;;1.50;1.30;;;19.10;46.80;;;;;;5041479;27;88613;-66
2022/01/17 02:07:12;;;;;;;1.90;1.30;;;19.10;46.80;;;;;;5043109;27;89843;-67
2022/01/17 02:09:40;;;;;;;1.40;1.23;;;19.10;46.80;;;;;;5041166;27;89834;-68
2022/01/17 02:12:09;;;;;;;1.07;0.97;;;19.00;46.70;;;;;;5053930;27;88663;-68
2022/01/17 02:14:37;;;;;;;2.20;1.30;;;19.10;46.80;;;;;;5043058;27;89180;-68
2022/01/17 02:17:05;;;;;;;1.70;1.40;;;19.00;46.70;;;;;;5060168;27;89312;-67
2022/01/17 02:19:44;;;;;;;2.07;1.27;;;19.00;46.70;;;;;;5057889;27;89203;-67
2022/01/17 02:22:13;;;;;;;2.10;1.17;;;19.00;46.70;;;;;;5046852;27;89961;-67
2022/01/17 02:24:57;;;;;;;3.50;1.67;;;19.00;46.70;;;;;;5036076;28;89382;-66
2022/01/17 02:27:27;;;;;;;2.27;1.37;;;19.00;46.70;;;;;;5037390;28;88581;-66
2022/01/17 02:29:55;;;;;;;2.07;1.40;;;19.00;46.70;;;;;;5027322;27;88199;-66
2022/01/17 02:32:23;;;;;;;1.50;1.40;;;19.00;46.70;;;;;;5037306;28;92469;-67
2022/01/17 02:34:51;;;;;;;2.07;1.33;;;19.00;46.70;;;;;;5037032;27;90296;-66
2022/01/17 02:37:19;;;;;;;2.90;1.00;;;19.00;46.70;;;;;;5038401;28;88392;-68
2022/01/17 02:39:47;;;;;;;2.40;1.50;;;19.00;46.70;;;;;;5036668;27;88759;-66
2022/01/17 02:42:19;;;;;;;1.87;1.10;;;18.90;46.60;;;;;;5036961;27;90674;-68
2022/01/17 02:44:50;;;;;;;2.13;1.10;;;19.00;46.70;;;;;;5035873;28;88787;-68
2022/01/17 02:47:18;;;;;;;2.10;1.30;;;19.00;46.70;;;;;;5036830;27;88666;-67
2022/01/17 02:49:46;;;;;;;3.00;1.30;;;18.90;46.70;;;;;;5035410;27;89490;-68
2022/01/17 02:52:14;;;;;;;2.17;1.37;;;18.90;46.70;;;;;;5037492;28;90591;-67
2022/01/17 02:54:43;;;;;;;0.87;0.80;;;18.90;46.70;;;;;;5035942;27;89285;-67
2022/01/17 02:57:11;;;;;;;1.70;1.20;;;18.90;46.70;;;;;;5036711;27;88543;-68
2022/01/17 02:59:40;;;;;;;3.20;1.30;;;18.90;46.70;;;;;;5036553;27;88463;-68
2022/01/17 03:02:08;;;;;;;2.90;1.40;;;18.90;46.70;;;;;;5035949;27;89480;-67
2022/01/17 03:04:36;;;;;;;2.80;1.20;;;18.80;46.60;;;;;;5037473;27;89030;-68
2022/01/17 03:07:04;;;;;;;1.43;1.00;;;18.80;46.60;;;;;;5037542;28;88739;-67
2022/01/17 03:09:42;;;;;;;1.37;0.80;;;18.80;46.60;;;;;;5037216;27;88524;-67
2022/01/17 03:12:11;;;;;;;3.23;1.20;;;18.80;46.60;;;;;;5026342;28;90911;-67
2022/01/17 03:14:40;;;;;;;2.70;1.57;;;18.80;46.60;;;;;;5035982;28;89463;-67
2022/01/17 03:17:09;;;;;;;0.97;0.73;;;18.80;46.60;;;;;;5021922;27;89673;-67
2022/01/17 03:19:37;;;;;;;2.97;1.57;;;18.80;46.60;;;;;;5035995;28;88507;-67
2022/01/17 03:22:04;;;;;;;2.20;1.50;;;18.80;46.60;;;;;;5024966;27;90882;-68
2022/01/17 03:24:33;;;;;;;1.63;1.17;;;18.80;46.60;;;;;;5019086;28;90331;-67
2022/01/17 03:27:00;;;;;;;1.73;1.20;;;18.80;46.60;;;;;;5037394;27;88348;-67
2022/01/17 03:29:28;;;;;;;4.10;0.90;;;18.80;46.60;;;;;;5017353;28;88646;-67
2022/01/17 03:31:58;;;;;;;1.20;1.07;;;18.80;46.70;;;;;;5026683;28;89441;-67
2022/01/17 03:34:26;;;;;;;2.10;1.40;;;18.80;46.60;;;;;;5026441;28;92532;-68
2022/01/17 03:36:54;;;;;;;2.57;0.90;;;18.70;46.60;;;;;;5018316;28;88447;-67
2022/01/17 03:39:22;;;;;;;3.40;1.00;;;18.80;46.60;;;;;;5024302;28;88618;-67
2022/01/17 03:41:50;;;;;;;1.90;1.20;;;18.80;46.60;;;;;;5016786;28;90176;-68
2022/01/17 03:44:18;;;;;;;4.60;1.37;;;18.80;46.60;;;;;;5006782;28;89459;-68
2022/01/17 03:46:46;;;;;;;2.60;1.03;;;18.80;46.60;;;;;;5004782;28;88419;-67
2022/01/17 03:49:15;;;;;;;2.27;1.27;;;18.80;46.60;;;;;;5004014;28;88670;-67
2022/01/17 03:51:43;;;;;;;0.97;0.80;;;18.80;46.60;;;;;;5016645;28;90769;-67
2022/01/17 03:54:11;;;;;;;2.23;1.20;;;18.70;46.50;;;;;;5003242;28;89880;-68
2022/01/17 03:56:39;;;;;;;0.60;0.50;;;18.70;46.60;;;;;;5003173;28;88663;-67
2022/01/17 03:59:07;;;;;;;0.93;0.70;;;18.70;46.60;;;;;;5013060;28;88457;-68
2022/01/17 04:01:35;;;;;;;0.87;0.83;;;18.70;46.60;;;;;;5016453;28;90648;-67
2022/01/17 04:04:04;;;;;;;2.30;1.00;;;18.70;46.60;;;;;;5004758;28;89748;-67
2022/01/17 04:06:34;;;;;;;1.37;1.07;;;18.70;46.60;;;;;;5010609;28;88587;-67
2022/01/17 04:09:02;;;;;;;2.07;0.93;;;18.60;46.50;;;;;;5003339;28;88320;-67
2022/01/17 04:11:30;;;;;;;1.17;0.90;;;18.70;46.60;;;;;;5006572;28;90146;-67
2022/01/17 04:13:58;;;;;;;1.87;0.80;;;18.60;46.50;;;;;;5007664;28;88982;-67
2022/01/17 04:16:26;;;;;;;3.43;1.23;;;18.60;46.50;;;;;;5015423;28;88628;-67
2022/01/17 04:18:55;;;;;;;2.87;1.63;;;18.60;46.50;;;;;;5003492;28;90213;-68
2022/01/17 04:21:25;;;;;;;1.30;0.87;;;18.60;46.50;;;;;;5012985;28;90528;-68
2022/01/17 04:23:55;;;;;;;1.40;1.30;;;18.70;46.60;;;;;;5009815;28;90098;-67
2022/01/17 04:26:23;;;;;;;1.57;1.00;;;18.60;46.50;;;;;;5003768;28;88282;-67
2022/01/17 04:28:50;;;;;;;3.67;1.00;;;18.60;46.50;;;;;;5003360;28;88365;-67
2022/01/17 04:31:18;;;;;;;1.17;1.07;;;18.60;46.50;;;;;;5005501;28;89545;-67
2022/01/17 04:33:47;;;;;;;1.80;0.83;;;18.60;46.50;;;;;;5007686;28;89856;-67
2022/01/17 04:36:15;;;;;;;1.70;1.10;;;18.60;46.50;;;;;;5017505;28;88551;-67
2022/01/17 04:38:43;;;;;;;2.53;0.67;;;18.60;46.50;;;;;;5018509;28;89444;-67
2022/01/17 04:41:15;;;;;;;2.60;0.80;;;18.60;46.50;;;;;;5008336;28;89565;-67
2022/01/17 04:44:04;;;;;;;1.80;1.00;;;18.60;46.50;;;;;;5002306;28;90542;-67
2022/01/17 04:46:36;;;;;;;1.37;0.60;;;18.50;46.50;;;;;;5007508;28;88622;-67
2022/01/17 04:49:04;;;;;;;1.67;0.87;;;18.50;46.50;;;;;;5014694;27;88526;-68
2022/01/17 04:51:32;;;;;;;0.80;0.80;;;18.50;46.50;;;;;;5005169;28;89757;-67
2022/01/17 04:54:20;;;;;;;2.57;1.03;;;18.50;46.50;;;;;;5009896;28;90089;-68
2022/01/17 04:56:50;;;;;;;0.93;0.73;;;18.50;46.50;;;;;;5018437;28;89527;-67
2022/01/17 04:59:18;;;;;;;1.47;1.00;;;18.50;46.40;;;;;;5018382;28;88522;-67
2022/01/17 05:01:46;;;;;;;1.60;0.90;;;18.50;46.50;;;;;;5002543;28;89672;-68
2022/01/17 05:04:14;;;;;;;1.80;0.93;;;18.50;46.40;;;;;;5001897;28;88906;-68
2022/01/17 05:06:42;;;;;;;1.77;0.70;;;18.50;46.50;;;;;;5010764;28;88500;-68
2022/01/17 05:09:09;;;;;;;3.20;0.70;;;18.50;46.50;;;;;;5002623;28;88679;-68
2022/01/17 05:11:37;;;;;;;1.83;1.03;;;18.50;46.50;;;;;;5007438;28;92510;-67
2022/01/17 05:14:08;;;;;;;1.77;0.87;;;18.50;46.50;;;;;;5017518;28;89924;-68
2022/01/17 05:16:41;;;;;;;0.83;0.70;;;18.50;46.50;;;;;;5018043;28;88585;-68
2022/01/17 05:21:54;;;;;;;2.67;0.83;;;18.40;46.40;;;;;;5002233;28;90778;-67
2022/01/17 05:24:22;;;;;;;0.77;0.77;;;18.50;46.50;;;;;;5005964;28;88390;-67
2022/01/17 05:26:50;;;;;;;1.77;0.87;;;18.50;46.50;;;;;;5003177;28;88414;-68
2022/01/17 05:29:21;;;;;;;1.13;0.80;;;18.40;46.40;;;;;;5003668;28;88514;-68
2022/01/17 05:31:49;;;;;;;1.20;1.00;;;18.40;46.50;;;;;;5010605;28;89501;-67
2022/01/17 05:34:17;;;;;;;1.20;0.83;;;18.40;46.50;;;;;;5020802;28;91373;-67
2022/01/17 05:36:45;;;;;;;4.63;1.00;;;18.40;46.50;;;;;;5020577;28;88380;-67
2022/01/17 05:39:14;;;;;;;2.90;0.97;;;18.40;46.50;;;;;;5002867;27;88582;-67
2022/01/17 05:41:42;;;;;;;2.30;1.00;;;18.40;47.10;;;;;;5013753;28;88482;-67
2022/01/17 05:44:10;;;;;;;1.37;1.00;;;18.80;46.80;;;;;;5019651;28;88738;-67
2022/01/17 05:46:39;;;;;;;2.97;1.40;;;18.40;46.50;;;;;;5013964;28;88468;-67
2022/01/17 05:49:07;;;;;;;1.27;0.63;;;18.40;47.20;;;;;;5004488;28;88569;-67
2022/01/17 05:51:35;;;;;;;1.47;0.77;;;18.40;46.50;;;;;;5001540;28;90810;-67
2022/01/17 05:54:03;;;;;;;0.80;0.73;;;18.40;46.60;;;;;;5004849;28;89113;-68
2022/01/17 05:56:31;;;;;;;2.33;0.87;;;18.30;46.40;;;;;;5015265;27;88231;-68
2022/01/17 05:58:59;;;;;;;1.53;0.80;;;18.30;46.40;;;;;;5006125;28;88445;-67
2022/01/17 06:01:27;;;;;;;1.20;0.70;;;18.30;46.40;;;;;;5010664;28;90699;-67
2022/01/17 06:03:56;;;;;;;1.77;0.73;;;18.30;46.50;;;;;;5000940;28;88998;-68
2022/01/17 06:06:24;;;;;;;1.10;1.00;;;18.30;46.50;;;;;;5000745;28;88671;-68
2022/01/17 06:08:52;;;;;;;1.67;1.00;;;18.30;46.50;;;;;;5002691;28;88576;-67
2022/01/17 06:11:20;;;;;;;1.07;0.90;;;18.30;47.10;;;;;;5009748;28;90172;-67
2022/01/17 06:13:48;;;;;;;3.30;1.00;;;18.30;46.40;;;;;;5013013;28;88593;-67
2022/01/17 06:16:16;;;;;;;1.60;1.13;;;18.30;46.40;;;;;;5004532;28;88669;-67
2022/01/17 06:18:44;;;;;;;1.07;0.97;;;18.40;46.50;;;;;;5006576;28;89556;-67
2022/01/17 06:21:13;;;;;;;1.00;0.90;;;18.10;46.20;;;;;;5012137;28;92793;-67
2022/01/17 06:23:41;;;;;;;1.17;1.00;;;18.30;46.40;;;;;;5012445;28;88988;-68
2022/01/17 06:26:09;;;;;;;4.83;1.10;;;18.30;47.00;;;;;;5008623;28;88336;-68
2022/01/17 06:28:37;;;;;;;1.30;0.80;;;18.30;46.40;;;;;;5002918;28;88508;-68
2022/01/17 06:31:05;;;;;;;1.07;0.80;;;18.30;46.40;;;;;;5003162;28;90772;-68
2022/01/17 06:33:33;;;;;;;1.77;1.07;;;18.30;46.40;;;;;;5012719;27;89277;-67
2022/01/17 06:36:01;;;;;;;1.33;0.70;;;18.30;46.50;;;;;;5002708;28;89741;-68
2022/01/17 06:38:31;;;;;;;1.77;0.97;;;18.30;46.50;;;;;;5003693;28;88849;-68
2022/01/17 06:40:59;;;;;;;0.90;0.90;;;18.30;46.50;;;;;;5000342;28;91038;-68
2022/01/17 06:43:27;;;;;;;0.87;0.83;;;18.30;46.50;;;;;;4999477;28;90389;-67
2022/01/17 06:45:55;;;;;;;2.60;1.10;;;18.20;46.40;;;;;;4999023;28;88563;-68
2022/01/17 06:48:26;;;;;;;1.10;1.00;;;18.30;46.50;;;;;;5004942;28;88481;-67
2022/01/17 06:50:54;;;;;;;2.07;1.23;;;18.20;46.50;;;;;;5012526;28;89300;-68
2022/01/17 06:53:26;;;;;;;2.40;0.77;;;18.20;46.40;;;;;;5019373;28;89508;-68
2022/01/17 06:55:55;;;;;;;1.83;1.07;;;18.20;46.50;;;;;;5007695;28;88609;-67
2022/01/17 06:58:23;;;;;;;1.30;1.20;;;18.20;46.50;;;;;;5005215;28;88579;-68
2022/01/17 07:00:51;;;;;;;1.50;1.17;;;18.20;46.40;;;;;;5009862;28;89500;-68
2022/01/17 07:03:19;;;;;;;1.33;1.10;;;18.20;47.10;;;;;;5001843;28;89832;-67
2022/01/17 07:05:47;;;;;;;1.33;0.93;;;18.20;46.50;;;;;;4999860;27;90058;-67
2022/01/17 07:08:15;;;;;;;1.77;1.40;;;18.20;46.50;;;;;;5005295;28;89147;-68
2022/01/17 07:10:44;;;;;;;1.27;0.90;;;18.20;46.50;;;;;;5001864;28;89705;-68
2022/01/17 07:13:13;;;;;;;2.50;1.10;;;18.20;46.50;;;;;;5002178;28;88865;-69
2022/01/17 07:15:41;;;;;;;2.20;1.47;;;18.20;46.50;;;;;;5012798;28;88561;-68
2022/01/17 07:18:11;;;;;;;8.40;0.87;;;18.20;46.50;;;;;;5012176;28;89400;-68
2022/01/17 07:20:39;;;;;;;1.57;1.20;;;18.20;46.50;;;;;;5014965;28;92230;-67
2022/01/17 07:23:07;;;;;;;6.20;1.23;;;18.20;46.50;;;;;;5017379;28;88753;-67
2022/01/17 07:25:38;;;;;;;2.73;1.97;;;18.20;46.60;;;;;;5006434;28;88581;-67
2022/01/17 07:28:07;;;;;;;1.13;1.00;;;18.20;46.60;;;;;;5011205;28;89668;-67
2022/01/17 07:30:37;;;;;;;2.47;1.47;;;18.20;46.70;;;;;;5005397;28;90135;-67
2022/01/17 07:33:05;;;;;;;2.70;1.10;;;18.20;46.80;;;;;;5018840;28;89120;-67
2022/01/17 07:35:33;;;;;;;4.17;0.80;;;18.20;46.80;;;;;;5020878;28;88346;-66
2022/01/17 07:38:01;;;;;;;3.10;1.00;;;18.30;46.90;;;;;;5015447;28;88784;-65
2022/01/17 07:40:29;;;;;;;3.40;1.60;;;18.40;47.00;;;;;;5008632;28;89372;-64
2022/01/17 07:42:57;;;;;;;2.40;0.93;;;18.60;47.10;;;;;;5018432;28;89672;-64
2022/01/17 07:45:27;;;;;;;2.53;1.00;;;18.80;47.20;;;;;;5008618;28;88530;-64
2022/01/17 07:48:45;;;;;;;2.10;1.17;;;18.90;47.10;;;;;;5008934;28;88484;-63
2022/01/17 07:51:12;;;;;;;1.63;1.00;;;19.20;47.30;;;;;;5001772;28;89673;-62
2022/01/17 07:53:40;;;;;;;3.43;1.40;;;19.40;47.20;;;;;;5003654;28;89951;-64
2022/01/17 07:56:08;;;;;;;2.50;1.20;;;19.70;47.30;;;;;;5005001;28;88543;-64
2022/01/17 07:58:36;;;;;;;1.90;1.20;;;19.90;47.30;;;;;;5008629;28;88682;-64
2022/01/17 08:01:04;;;;;;;2.67;0.90;;;20.20;47.30;;;;;;5006170;28;89461;-64
2022/01/17 08:03:33;;;;;;;1.40;1.10;;;20.40;47.30;;;;;;5011705;28;89966;-64
2022/01/17 08:06:01;;;;;;;1.70;1.23;;;20.60;47.20;;;;;;5010459;28;88579;-65
2022/01/17 08:08:30;;;;;;;2.07;1.27;;;20.90;47.20;;;;;;5005222;28;88615;-64
2022/01/17 08:10:58;;;;;;;8.43;1.30;;;21.00;47.10;;;;;;5011234;28;89332;-65
2022/01/17 08:13:26;;;;;;;2.27;0.90;;;21.20;47.00;;;;;;5018930;28;90141;-64
2022/01/17 08:15:55;;;;;;;5.13;1.23;;;21.40;47.00;;;;;;5019364;28;88547;-65
2022/01/17 08:18:23;;;;;;;1.23;0.73;;;21.60;47.00;;;;;;5015587;28;88336;-64
2022/01/17 08:20:52;;;;;;;5.70;1.40;;;21.70;46.90;;;;;;5010564;28;88530;-64
2022/01/17 08:23:20;;;;;;;2.77;0.80;;;21.80;46.80;;;;;;5000106;28;90042;-65
2022/01/17 08:25:48;;;;;;;3.07;0.83;;;21.90;46.70;;;;;;5004546;28;88639;-64
2022/01/17 08:28:22;;;;;;;1.57;0.93;;;21.90;46.70;;;;;;5004682;28;88536;-64
2022/01/17 08:30:52;;;;;;;1.10;0.90;;;21.90;46.60;;;;;;5002693;28;90279;-64
2022/01/17 08:33:40;;;;;;;1.97;0.80;;;21.90;46.70;;;;;;5004705;28;91005;-65
2022/01/17 08:36:11;;;;;;;2.13;0.90;;;21.90;46.60;;;;;;5009479;28;90168;-64
2022/01/17 08:38:45;;;;;;;8.50;1.30;;;21.90;46.70;;;;;;5013096;28;88354;-64
2022/01/17 08:41:13;;;;;;;0.93;0.70;;;22.00;46.70;;;;;;5013168;28;90690;-65
2022/01/17 08:43:41;;;;;;;1.13;1.00;;;22.10;46.70;;;;;;5006097;28;89333;-64
2022/01/17 08:46:09;;;;;;;0.83;0.63;;;22.20;46.60;;;;;;5014928;28;89701;-64
2022/01/17 08:48:38;;;;;;;2.43;1.27;;;22.40;46.60;;;;;;5014805;28;88858;-65
2022/01/17 08:51:07;;;;;;;1.30;1.13;;;22.50;46.50;;;;;;5005730;28;92607;-66
2022/01/17 08:53:36;;;;;;;2.97;1.10;;;22.60;46.40;;;;;;5000273;28;92209;-64
2022/01/17 08:56:05;;;;;;;3.73;1.37;;;22.70;46.90;;;;;;5002984;28;88644;-65
2022/01/17 08:58:33;;;;;;;3.50;1.10;;;22.80;46.20;;;;;;5006211;28;88608;-64
2022/01/17 09:01:01;;;;;;;2.57;0.97;;;22.80;46.10;;;;;;5007738;28;90650;-64
2022/01/17 09:03:29;;;;;;;1.33;0.90;;;22.80;46.00;;;;;;5000263;28;89404;-64
2022/01/17 09:05:57;;;;;;;2.30;0.90;;;22.80;46.00;;;;;;5004733;28;88565;-64
2022/01/17 09:08:25;;;;;;;2.23;0.80;;;22.80;46.10;;;;;;5010785;28;89971;-64
2022/01/17 09:10:57;;;;;;;2.37;0.87;;;22.80;46.10;;;;;;5010121;28;89879;-65
2022/01/17 09:13:25;;;;;;;2.57;0.70;;;22.80;46.10;;;;;;5010166;28;89949;-65
2022/01/17 09:15:53;;;;;;;1.23;0.83;;;22.90;46.00;;;;;;5005706;28;88525;-64
2022/01/17 09:18:24;;;;;;;3.27;1.10;;;23.00;46.00;;;;;;5014176;28;88393;-64
2022/01/17 09:20:52;;;;;;;2.87;1.07;;;23.20;45.90;;;;;;5003083;28;90465;-64
2022/01/17 09:23:20;;;;;;;1.10;0.83;;;23.30;45.80;;;;;;5007153;28;89964;-64
2022/01/17 09:25:48;;;;;;;1.87;1.23;;;23.50;45.80;;;;;;5003948;28;89461;-64
2022/01/17 09:28:18;;;;;;;2.33;0.73;;;23.50;45.70;;;;;;5001614;28;88739;-64
2022/01/17 09:30:46;;;;;;;3.13;1.00;;;23.60;45.60;;;;;;5006236;28;89500;-64
2022/01/17 09:33:14;;;;;;;1.17;0.60;;;23.70;45.50;;;;;;5014458;28;90114;-64
2022/01/17 09:35:42;;;;;;;2.80;1.20;;;23.70;46.10;;;;;;5014684;28;88579;-66
2022/01/17 09:38:11;;;;;;;0.90;0.70;;;23.70;45.40;;;;;;5010495;28;88542;-64
2022/01/17 09:40:39;;;;;;;1.10;0.77;;;23.60;45.30;;;;;;5011425;28;89595;-64
2022/01/17 09:43:28;;;;;;;1.77;0.87;;;23.60;45.30;;;;;;5003492;28;90976;-64
2022/01/17 09:45:57;;;;;;;2.63;1.10;;;23.60;45.40;;;;;;5007193;28;88585;-64
2022/01/17 09:48:35;;;;;;;1.77;0.90;;;23.60;45.30;;;;;;5013115;28;88458;-64
2022/01/17 09:51:14;;;;;;;1.77;1.10;;;23.70;45.40;;;;;;5007687;28;91003;-65
2022/01/17 09:53:43;;;;;;;3.37;1.20;;;23.80;45.30;;;;;;5011243;28;88760;-64
2022/01/17 09:56:11;;;;;;;1.37;0.70;;;23.90;45.30;;;;;;5009409;28;89088;-65
2022/01/17 09:58:40;;;;;;;1.50;0.70;;;24.00;45.20;;;;;;5012856;28;88409;-65
2022/01/17 10:01:08;;;;;;;1.93;0.83;;;24.20;45.20;;;;;;5002268;28;92901;-65
2022/01/17 10:03:40;;;;;;;1.10;0.90;;;24.30;45.10;;;;;;4999424;28;89103;-66
2022/01/17 10:06:08;;;;;;;0.97;0.67;;;24.40;45.00;;;;;;5007424;28;88681;-65
2022/01/17 10:08:36;;;;;;;1.33;0.83;;;24.50;45.00;;;;;;5002628;28;89214;-65
2022/01/17 10:11:12;;;;;;;1.77;0.90;;;24.60;44.90;;;;;;5001539;28;89847;-65
2022/01/17 10:13:45;;;;;;;2.10;1.10;;;24.60;44.80;;;;;;5002336;28;89972;-65
2022/01/17 10:16:14;;;;;;;2.17;0.53;;;24.60;44.80;;;;;;5011959;28;89465;-67
2022/01/17 10:18:45;;;;;;;5.10;1.17;;;24.60;44.80;;;;;;5007438;28;88681;-65
2022/01/17 10:21:30;;;;;;;2.10;0.80;;;24.50;44.70;;;;;;5002146;28;89505;-65
2022/01/17 10:27:05;;;;;;;1.57;0.77;;;24.30;44.80;;;;;;5009160;28;90381;-65
2022/01/17 10:35:13;;;;;;;1.67;0.80;;;24.00;45.00;;;;;;5006027;28;88753;-65
2022/01/17 10:37:41;;;;;;;2.37;1.30;;;23.80;45.00;;;;;;5003979;28;90242;-66
2022/01/17 10:40:12;;;;;;;1.03;0.67;;;23.70;45.10;;;;;;5004643;28;88665;-65
2022/01/17 10:42:42;;;;;;;3.77;0.90;;;23.60;45.10;;;;;;5006378;28;90534;-65
2022/01/17 10:45:13;;;;;;;4.93;1.23;;;23.50;45.20;;;;;;5007962;28;90515;-65
2022/01/17 10:47:45;;;;;;;2.93;1.00;;;23.40;45.20;;;;;;5012835;28;88611;-65
2022/01/17 10:50:15;;;;;;;4.60;0.80;;;23.40;45.30;;;;;;5005278;28;89238;-65
2022/01/17 10:52:45;;;;;;;1.97;1.20;;;23.30;45.40;;;;;;5007500;28;90281;-65
2022/01/17 10:55:13;;;;;;;1.17;1.07;;;23.20;45.40;;;;;;5007086;28;89032;-65
2022/01/17 10:57:42;;;;;;;1.20;0.90;;;23.10;45.50;;;;;;5016664;28;88544;-65
2022/01/17 11:00:13;;;;;;;1.53;1.00;;;23.10;45.50;;;;;;5015172;28;88700;-65
2022/01/17 11:02:43;;;;;;;2.30;1.00;;;23.00;45.60;;;;;;5009076;28;90151;-64
2022/01/17 11:05:14;;;;;;;1.80;1.00;;;22.90;45.60;;;;;;5014265;28;89142;-64
2022/01/17 11:07:43;;;;;;;2.20;0.93;;;22.80;45.60;;;;;;5004405;28;89636;-65
2022/01/17 11:10:16;;;;;;;2.63;0.90;;;22.80;45.70;;;;;;5011913;28;89779;-65
2022/01/17 11:12:44;;;;;;;1.43;0.93;;;22.80;45.80;;;;;;5014849;28;90265;-66
2022/01/17 11:15:14;;;;;;;2.10;1.07;;;22.70;45.80;;;;;;5009033;28;90246;-64
2022/01/17 11:17:48;;;;;;;3.07;1.03;;;22.60;45.80;;;;;;5007416;28;88537;-65
2022/01/17 11:20:17;;;;;;;5.10;1.20;;;22.60;45.90;;;;;;5001232;28;88514;-65
2022/01/17 11:22:46;;;;;;;2.03;0.77;;;22.50;45.80;;;;;;5012740;28;90649;-65
2022/01/17 11:25:15;;;;;;;3.37;1.17;;;22.50;46.00;;;;;;5009209;28;89542;-65
2022/01/17 11:27:43;;;;;;;1.37;0.67;;;22.40;45.90;;;;;;5012643;28;88599;-65
2022/01/17 11:30:12;;;;;;;5.77;1.20;;;22.40;46.00;;;;;;5007710;28;88652;-65
2022/01/17 11:32:42;;;;;;;3.13;0.90;;;22.40;46.00;;;;;;5007348;28;90388;-66
2022/01/17 11:35:11;;;;;;;1.90;0.90;;;22.30;46.00;;;;;;5004303;28;90138;-65
2022/01/17 11:37:40;;;;;;;1.20;0.90;;;22.30;46.10;;;;;;5008787;28;88982;-65
2022/01/17 11:40:08;;;;;;;1.80;0.90;;;22.30;46.10;;;;;;5007101;28;88915;-65
2022/01/17 11:42:39;;;;;;;1.27;0.70;;;21.90;45.80;;;;;;5009237;28;90697;-65
2022/01/17 11:45:35;;;;;;;2.47;0.93;;;22.20;46.10;;;;;;5007964;28;94581;-65
2022/01/17 11:48:06;;;;;;;1.37;0.87;;;22.10;46.20;;;;;;5003780;28;88833;-65
2022/01/17 11:50:48;;;;;;;5.13;1.23;;;22.10;46.20;;;;;;5010179;28;88515;-66
2022/01/17 11:53:49;;;;;;;1.37;0.70;;;22.00;46.20;;;;;;5009624;28;90610;-64
2022/01/17 11:56:36;;;;;;;0.97;0.60;;;21.90;46.30;;;;;;5008474;28;90623;-65
2022/01/17 11:59:41;;;;;;;3.57;1.10;;;21.90;46.30;;;;;;5008022;28;88582;-65
2022/01/17 12:02:20;;;;;;;1.53;0.73;;;21.80;46.40;;;;;;4931011;28;88641;-64
2022/01/17 12:05:37;;;;;;;1.40;0.90;;;21.80;46.40;;;;;;4930017;28;89731;-65
2022/01/17 12:08:09;;;;;;;1.53;0.70;;;21.80;46.40;;;;;;4996814;28;88973;-65
2022/01/17 12:10:43;;;;;;;1.03;0.70;;;21.80;46.40;;;;;;5008643;28;88423;-65
2022/01/17 12:13:45;;;;;;;1.40;0.70;;;21.80;46.50;;;;;;5005641;28;88702;-65
2022/01/17 12:16:19;;;;;;;1.10;0.70;;;21.70;47.10;;;;;;5001078;28;93852;-65
2022/01/17 12:18:50;;;;;;;3.77;0.80;;;21.70;46.40;;;;;;5009890;28;90023;-65
2022/01/17 12:21:28;;;;;;;0.83;0.60;;;21.70;46.50;;;;;;5004682;28;88432;-64
2022/01/17 12:24:32;;;;;;;0.83;0.60;;;21.70;46.50;;;;;;5011970;28;89617;-65
2022/01/17 12:27:11;;;;;;;1.43;0.70;;;21.70;46.60;;;;;;5001825;28;90338;-65
2022/01/17 12:29:41;;;;;;;4.30;0.90;;;21.60;46.50;;;;;;5005680;28;90452;-65
2022/01/17 12:32:47;;;;;;;1.13;0.80;;;21.60;46.50;;;;;;5002400;28;88463;-64
2022/01/17 12:35:17;;;;;;;1.23;0.67;;;21.60;46.60;;;;;;5006092;28;88504;-65
2022/01/17 12:37:46;;;;;;;3.87;0.90;;;21.60;46.60;;;;;;5005072;28;90565;-65
2022/01/17 12:40:18;;;;;;;2.37;0.83;;;21.50;46.60;;;;;;5008048;28;90080;-65
2022/01/17 12:42:51;;;;;;;1.00;0.60;;;21.50;46.60;;;;;;5008241;28;88212;-64
2022/01/17 12:45:20;;;;;;;2.83;0.87;;;21.50;46.60;;;;;;5003768;28;88605;-64
2022/01/17 12:47:48;;;;;;;2.40;1.03;;;21.50;46.60;;;;;;5008126;28;92666;-65
2022/01/17 12:50:16;;;;;;;3.33;1.00;;;21.40;46.60;;;;;;5000636;28;90195;-65
2022/01/17 12:52:44;;;;;;;0.70;0.70;;;21.40;46.60;;;;;;5001006;28;89431;-65
2022/01/17 12:55:13;;;;;;;0.90;0.70;;;21.40;46.70;;;;;;5007581;28;88553;-65
2022/01/17 12:57:44;;;;;;;1.23;0.80;;;21.40;46.70;;;;;;5005962;28;89445;-65
2022/01/17 13:00:17;;;;;;;3.07;1.03;;;21.40;46.70;;;;;;5007029;28;89976;-64
2022/01/17 13:02:47;;;;;;;1.33;0.87;;;21.40;46.70;;;;;;5010719;28;88481;-65
2022/01/17 13:05:15;;;;;;;1.90;0.73;;;21.40;47.40;;;;;;5010389;28;88886;-66
2022/01/17 13:07:43;;;;;;;1.67;0.97;;;21.40;46.80;;;;;;5007476;28;90659;-65
2022/01/17 13:10:12;;;;;;;3.33;1.30;;;21.40;46.90;;;;;;5012341;28;89449;-66
2022/01/17 13:12:42;;;;;;;2.80;1.00;;;21.40;47.60;;;;;;5001944;28;88491;-66
2022/01/17 13:15:11;;;;;;;2.80;1.30;;;21.50;47.10;;;;;;5008223;28;88723;-66
2022/01/17 13:17:39;;;;;;;2.80;1.67;;;21.50;47.20;;;;;;5007462;28;90084;-66
2022/01/17 13:20:08;;;;;;;3.73;2.00;;;21.70;47.20;;;;;;5002137;28;88977;-66
2022/01/17 13:22:40;;;;;;;5.80;2.53;;;21.90;47.30;;;;;;5001092;28;88353;-66
2022/01/17 13:25:09;;;;;;;3.47;2.30;;;22.10;47.30;;;;;;5001267;28;88307;-66
2022/01/17 13:27:42;;;;;;;4.00;2.30;;;22.30;47.30;;;;;;5002049;28;91874;-66